sensor_id;sensor_type;location;lat;lon;timestamp;temperature;humidity
6954;DHT22;3516;47.980;8.808;2023-04-30T07:56:03;16.80;73.40
6954;DHT22;3516;47.980;8.808;2023-04-30T07:58:30;17.40;63.20
6954;DHT22;3516;47.980;8.808;2023-04-30T08:00:57;17.30;60.90
6954;DHT22;3516;47.980;8.808;2023-04-30T08:03:23;16.90;56.40
6954;DHT22;3516;47.980;8.808;2023-04-30T08:05:51;16.40;64.30
6954;DHT22;3516;47.980;8.808;2023-04-30T08:08:18;16.30;62.30
6954;DHT22;3516;47.980;8.808;2023-04-30T08:10:44;16.00;63.70
6954;DHT22;3516;47.980;8.808;2023-04-30T08:13:12;16.10;72.80
6954;DHT22;3516;47.980;8.808;2023-04-30T08:15:39;16.40;70.80
6954;DHT22;3516;47.980;8.808;2023-04-30T08:18:06;16.50;64.10
6954;DHT22;3516;47.980;8.808;2023-04-30T08:20:33;17.80;56.20
6954;DHT22;3516;47.980;8.808;2023-04-30T08:23:00;18.40;49.20
6954;DHT22;3516;47.980;8.808;2023-04-30T08:25:27;18.80;46.20
6954;DHT22;3516;47.980;8.808;2023-04-30T08:27:55;18.50;46.20
6954;DHT22;3516;47.980;8.808;2023-04-30T08:30:24;17.90;50.70
6954;DHT22;3516;47.980;8.808;2023-04-30T08:32:50;17.70;50.10
6954;DHT22;3516;47.980;8.808;2023-04-30T08:35:17;17.30;51.30
6954;DHT22;3516;47.980;8.808;2023-04-30T08:37:44;16.60;55.60
6954;DHT22;3516;47.980;8.808;2023-04-30T08:40:11;16.30;58.50
6954;DHT22;3516;47.980;8.808;2023-04-30T08:42:44;16.10;61.70
6954;DHT22;3516;47.980;8.808;2023-04-30T08:45:11;16.10;61.50
6954;DHT22;3516;47.980;8.808;2023-04-30T08:47:40;15.70;63.20
6954;DHT22;3516;47.980;8.808;2023-04-30T08:50:07;15.40;67.60
6954;DHT22;3516;47.980;8.808;2023-04-30T08:52:36;15.10;72.90
6954;DHT22;3516;47.980;8.808;2023-04-30T08:55:06;15.00;72.40
6954;DHT22;3516;47.980;8.808;2023-04-30T08:57:33;14.70;79.50
6954;DHT22;3516;47.980;8.808;2023-04-30T09:00:01;14.40;83.80
6954;DHT22;3516;47.980;8.808;2023-04-30T09:02:30;14.40;92.60
6954;DHT22;3516;47.980;8.808;2023-04-30T09:04:58;14.50;81.20
6954;DHT22;3516;47.980;8.808;2023-04-30T09:07:25;14.50;84.90
6954;DHT22;3516;47.980;8.808;2023-04-30T09:09:53;14.50;92.30
6954;DHT22;3516;47.980;8.808;2023-04-30T09:12:20;14.70;91.80
6954;DHT22;3516;47.980;8.808;2023-04-30T09:15:00;14.80;85.20
6954;DHT22;3516;47.980;8.808;2023-04-30T09:17:28;14.80;82.40
6954;DHT22;3516;47.980;8.808;2023-04-30T09:20:07;15.10;82.60
6954;DHT22;3516;47.980;8.808;2023-04-30T09:22:35;15.00;74.10
6954;DHT22;3516;47.980;8.808;2023-04-30T09:25:02;15.00;77.10
6954;DHT22;3516;47.980;8.808;2023-04-30T09:27:29;15.00;74.60
6954;DHT22;3516;47.980;8.808;2023-04-30T09:29:56;14.90;77.20
6954;DHT22;3516;47.980;8.808;2023-04-30T09:32:23;14.80;79.70
6954;DHT22;3516;47.980;8.808;2023-04-30T09:34:49;15.00;84.80
6954;DHT22;3516;47.980;8.808;2023-04-30T09:37:17;15.20;75.90
6954;DHT22;3516;47.980;8.808;2023-04-30T09:39:49;15.50;73.20
6954;DHT22;3516;47.980;8.808;2023-04-30T09:42:16;15.50;69.80
6954;DHT22;3516;47.980;8.808;2023-04-30T09:44:43;15.30;69.60
6954;DHT22;3516;47.980;8.808;2023-04-30T09:47:11;15.00;71.00
6954;DHT22;3516;47.980;8.808;2023-04-30T09:49:41;14.90;75.90
6954;DHT22;3516;47.980;8.808;2023-04-30T09:52:08;15.00;74.10
6954;DHT22;3516;47.980;8.808;2023-04-30T09:54:37;15.00;75.70
6954;DHT22;3516;47.980;8.808;2023-04-30T09:57:05;15.00;75.30
6954;DHT22;3516;47.980;8.808;2023-04-30T09:59:35;15.00;84.90
6954;DHT22;3516;47.980;8.808;2023-04-30T10:02:04;15.20;74.00
6954;DHT22;3516;47.980;8.808;2023-04-30T10:04:33;15.20;65.90
6954;DHT22;3516;47.980;8.808;2023-04-30T10:07:02;15.20;72.50
6954;DHT22;3516;47.980;8.808;2023-04-30T10:09:38;15.50;74.10
6954;DHT22;3516;47.980;8.808;2023-04-30T10:12:08;16.00;67.60
6954;DHT22;3516;47.980;8.808;2023-04-30T10:14:36;16.30;62.70
6954;DHT22;3516;47.980;8.808;2023-04-30T10:17:07;16.20;59.60
6954;DHT22;3516;47.980;8.808;2023-04-30T10:19:39;16.00;58.70
6954;DHT22;3516;47.980;8.808;2023-04-30T10:22:08;15.80;59.50
6954;DHT22;3516;47.980;8.808;2023-04-30T11:43:24;16.80;49.40
6954;DHT22;3516;47.980;8.808;2023-04-30T11:46:05;17.10;50.40
6954;DHT22;3516;47.980;8.808;2023-04-30T11:48:34;17.30;47.90
6954;DHT22;3516;47.980;8.808;2023-04-30T11:51:14;17.20;49.70
6954;DHT22;3516;47.980;8.808;2023-04-30T11:53:41;17.30;49.80
6954;DHT22;3516;47.980;8.808;2023-04-30T11:56:09;17.20;46.00
6954;DHT22;3516;47.980;8.808;2023-04-30T11:58:37;17.30;48.00
6954;DHT22;3516;47.980;8.808;2023-04-30T12:01:06;17.40;47.70
6954;DHT22;3516;47.980;8.808;2023-04-30T12:03:41;17.40;46.80
6954;DHT22;3516;47.980;8.808;2023-04-30T12:06:09;17.60;46.20
6954;DHT22;3516;47.980;8.808;2023-04-30T12:08:37;17.80;44.20
6954;DHT22;3516;47.980;8.808;2023-04-30T12:11:19;17.80;45.40
6954;DHT22;3516;47.980;8.808;2023-04-30T12:13:52;17.50;44.50
6954;DHT22;3516;47.980;8.808;2023-04-30T12:16:19;17.10;44.80
6954;DHT22;3516;47.980;8.808;2023-04-30T12:18:46;17.00;48.30
6954;DHT22;3516;47.980;8.808;2023-04-30T12:21:14;17.10;48.80
6954;DHT22;3516;47.980;8.808;2023-04-30T12:23:42;16.90;46.40
6954;DHT22;3516;47.980;8.808;2023-04-30T12:26:12;16.80;49.40
6954;DHT22;3516;47.980;8.808;2023-04-30T12:28:39;16.80;49.00
6954;DHT22;3516;47.980;8.808;2023-04-30T12:31:07;17.00;49.30
6954;DHT22;3516;47.980;8.808;2023-04-30T12:33:34;17.10;48.40
6954;DHT22;3516;47.980;8.808;2023-04-30T12:36:01;16.90;44.30
6954;DHT22;3516;47.980;8.808;2023-04-30T12:38:28;16.60;47.20
6954;DHT22;3516;47.980;8.808;2023-04-30T12:40:55;16.60;48.40
6954;DHT22;3516;47.980;8.808;2023-04-30T12:43:22;16.50;48.90
6954;DHT22;3516;47.980;8.808;2023-04-30T12:45:51;16.50;50.10
6954;DHT22;3516;47.980;8.808;2023-04-30T12:48:20;16.50;49.40
6954;DHT22;3516;47.980;8.808;2023-04-30T12:50:51;16.70;50.30
6954;DHT22;3516;47.980;8.808;2023-04-30T12:53:18;16.80;49.00
6954;DHT22;3516;47.980;8.808;2023-04-30T12:56:07;16.90;48.20
6954;DHT22;3516;47.980;8.808;2023-04-30T12:58:34;17.00;48.10
6954;DHT22;3516;47.980;8.808;2023-04-30T13:01:01;16.80;47.70
6954;DHT22;3516;47.980;8.808;2023-04-30T13:03:29;17.10;48.60
6954;DHT22;3516;47.980;8.808;2023-04-30T13:05:56;17.30;46.70
6954;DHT22;3516;47.980;8.808;2023-04-30T13:08:23;17.40;45.20
6954;DHT22;3516;47.980;8.808;2023-04-30T13:10:50;17.60;45.20
6954;DHT22;3516;47.980;8.808;2023-04-30T13:13:17;17.80;44.20
6954;DHT22;3516;47.980;8.808;2023-04-30T13:15:44;17.90;43.80
6954;DHT22;3516;47.980;8.808;2023-04-30T13:18:11;18.00;43.00
6954;DHT22;3516;47.980;8.808;2023-04-30T13:20:41;17.80;42.40
6954;DHT22;3516;47.980;8.808;2023-04-30T13:23:09;17.60;43.80
6954;DHT22;3516;47.980;8.808;2023-04-30T13:25:38;17.50;43.50
6954;DHT22;3516;47.980;8.808;2023-04-30T13:28:06;17.30;43.10
6954;DHT22;3516;47.980;8.808;2023-04-30T13:30:33;17.10;46.00
6954;DHT22;3516;47.980;8.808;2023-04-30T13:33:00;17.10;46.30
6954;DHT22;3516;47.980;8.808;2023-04-30T13:35:27;16.80;45.90
6954;DHT22;3516;47.980;8.808;2023-04-30T13:37:57;16.90;47.50
6954;DHT22;3516;47.980;8.808;2023-04-30T13:40:24;16.70;47.60
6954;DHT22;3516;47.980;8.808;2023-04-30T13:42:51;16.70;50.30
6954;DHT22;3516;47.980;8.808;2023-04-30T13:45:18;16.50;50.30
6954;DHT22;3516;47.980;8.808;2023-04-30T13:47:45;16.00;50.40
6954;DHT22;3516;47.980;8.808;2023-04-30T13:50:11;16.30;52.20
6954;DHT22;3516;47.980;8.808;2023-04-30T13:52:38;16.40;53.80
6954;DHT22;3516;47.980;8.808;2023-04-30T13:55:07;16.60;50.40
6954;DHT22;3516;47.980;8.808;2023-04-30T13:57:35;16.50;49.80
6954;DHT22;3516;47.980;8.808;2023-04-30T14:00:03;16.50;52.80
6954;DHT22;3516;47.980;8.808;2023-04-30T14:02:30;16.80;52.40
6954;DHT22;3516;47.980;8.808;2023-04-30T14:04:57;17.00;48.80
6954;DHT22;3516;47.980;8.808;2023-04-30T14:07:24;17.20;46.20
6954;DHT22;3516;47.980;8.808;2023-04-30T14:09:51;17.00;47.50
6954;DHT22;3516;47.980;8.808;2023-04-30T14:12:19;17.00;44.70
6954;DHT22;3516;47.980;8.808;2023-04-30T14:14:48;17.00;46.90
6954;DHT22;3516;47.980;8.808;2023-04-30T14:17:15;16.90;48.60
6954;DHT22;3516;47.980;8.808;2023-04-30T14:19:41;17.00;48.20
6954;DHT22;3516;47.980;8.808;2023-04-30T14:22:08;17.10;48.10
6954;DHT22;3516;47.980;8.808;2023-04-30T14:24:35;17.20;47.30
6954;DHT22;3516;47.980;8.808;2023-04-30T14:27:02;17.20;45.00
6954;DHT22;3516;47.980;8.808;2023-04-30T14:29:30;17.10;46.20
6954;DHT22;3516;47.980;8.808;2023-04-30T14:31:57;16.90;47.10
6954;DHT22;3516;47.980;8.808;2023-04-30T14:34:23;16.70;46.30
6954;DHT22;3516;47.980;8.808;2023-04-30T14:36:52;16.70;47.50
6954;DHT22;3516;47.980;8.808;2023-04-30T14:39:18;16.90;48.40
6954;DHT22;3516;47.980;8.808;2023-04-30T14:41:45;17.00;46.90
6954;DHT22;3516;47.980;8.808;2023-04-30T14:44:12;17.10;45.70
6954;DHT22;3516;47.980;8.808;2023-04-30T14:46:40;16.90;45.90
6954;DHT22;3516;47.980;8.808;2023-04-30T14:49:07;16.80;46.60
6954;DHT22;3516;47.980;8.808;2023-04-30T14:51:33;16.70;46.50
6954;DHT22;3516;47.980;8.808;2023-04-30T14:54:00;16.60;47.50
6954;DHT22;3516;47.980;8.808;2023-04-30T14:56:27;16.60;48.00
6954;DHT22;3516;47.980;8.808;2023-04-30T14:58:54;16.60;51.20
6954;DHT22;3516;47.980;8.808;2023-04-30T15:01:21;16.70;48.30
6954;DHT22;3516;47.980;8.808;2023-04-30T15:03:50;16.60;47.10
6954;DHT22;3516;47.980;8.808;2023-04-30T15:06:17;16.50;46.20
6954;DHT22;3516;47.980;8.808;2023-04-30T15:08:44;16.50;47.10
6954;DHT22;3516;47.980;8.808;2023-04-30T15:11:11;16.40;47.60
6954;DHT22;3516;47.980;8.808;2023-04-30T15:13:38;16.40;47.40
6954;DHT22;3516;47.980;8.808;2023-04-30T15:16:05;16.40;47.90
6954;DHT22;3516;47.980;8.808;2023-04-30T15:18:32;16.30;50.00
6954;DHT22;3516;47.980;8.808;2023-04-30T15:21:01;16.20;47.60
6954;DHT22;3516;47.980;8.808;2023-04-30T15:23:27;16.10;48.80
6954;DHT22;3516;47.980;8.808;2023-04-30T15:25:55;16.00;52.60
6954;DHT22;3516;47.980;8.808;2023-04-30T15:28:22;16.00;50.30
6954;DHT22;3516;47.980;8.808;2023-04-30T15:30:49;16.10;50.40
6954;DHT22;3516;47.980;8.808;2023-04-30T15:33:16;16.10;50.30
6954;DHT22;3516;47.980;8.808;2023-04-30T15:35:44;16.10;49.20
6954;DHT22;3516;47.980;8.808;2023-04-30T15:38:13;16.10;49.70
6954;DHT22;3516;47.980;8.808;2023-04-30T15:40:40;16.20;49.60
6954;DHT22;3516;47.980;8.808;2023-04-30T15:43:06;16.20;48.30
6954;DHT22;3516;47.980;8.808;2023-04-30T15:45:33;16.10;48.80
6954;DHT22;3516;47.980;8.808;2023-04-30T15:48:00;16.10;47.80
6954;DHT22;3516;47.980;8.808;2023-04-30T15:50:27;16.10;47.90
6954;DHT22;3516;47.980;8.808;2023-04-30T15:52:54;16.10;48.80
6954;DHT22;3516;47.980;8.808;2023-04-30T15:55:22;16.20;48.90
6954;DHT22;3516;47.980;8.808;2023-04-30T15:57:49;16.30;49.10
6954;DHT22;3516;47.980;8.808;2023-04-30T16:00:16;16.20;48.40
6954;DHT22;3516;47.980;8.808;2023-04-30T16:02:43;16.00;48.70
6954;DHT22;3516;47.980;8.808;2023-04-30T16:05:10;15.90;50.40
6954;DHT22;3516;47.980;8.808;2023-04-30T16:07:37;15.90;50.10
6954;DHT22;3516;47.980;8.808;2023-04-30T16:10:04;15.80;50.10
6954;DHT22;3516;47.980;8.808;2023-04-30T16:12:33;15.70;51.00
6954;DHT22;3516;47.980;8.808;2023-04-30T16:15:00;15.70;53.20
6954;DHT22;3516;47.980;8.808;2023-04-30T16:17:29;15.70;51.00
6954;DHT22;3516;47.980;8.808;2023-04-30T16:19:56;15.60;52.70
6954;DHT22;3516;47.980;8.808;2023-04-30T16:22:24;15.60;52.10
6954;DHT22;3516;47.980;8.808;2023-04-30T16:24:52;15.60;51.30
6954;DHT22;3516;47.980;8.808;2023-04-30T16:27:19;15.50;51.10
6954;DHT22;3516;47.980;8.808;2023-04-30T16:29:47;15.40;51.00
6954;DHT22;3516;47.980;8.808;2023-04-30T16:32:14;15.30;51.80
6954;DHT22;3516;47.980;8.808;2023-04-30T16:34:40;15.30;53.90
6954;DHT22;3516;47.980;8.808;2023-04-30T16:37:08;15.20;52.70
6954;DHT22;3516;47.980;8.808;2023-04-30T16:39:34;15.20;53.40
6954;DHT22;3516;47.980;8.808;2023-04-30T16:42:01;15.20;54.30
6954;DHT22;3516;47.980;8.808;2023-04-30T16:44:28;15.20;54.90
6954;DHT22;3516;47.980;8.808;2023-04-30T16:46:56;15.20;53.70
6954;DHT22;3516;47.980;8.808;2023-04-30T16:49:24;15.00;56.50
6954;DHT22;3516;47.980;8.808;2023-04-30T16:51:51;14.90;56.70
6954;DHT22;3516;47.980;8.808;2023-04-30T16:54:17;14.90;58.40
6954;DHT22;3516;47.980;8.808;2023-04-30T16:56:44;14.80;58.50
6954;DHT22;3516;47.980;8.808;2023-04-30T16:59:11;14.80;59.70
6954;DHT22;3516;47.980;8.808;2023-04-30T17:01:37;14.70;61.60
6954;DHT22;3516;47.980;8.808;2023-04-30T17:04:05;14.70;62.10
6954;DHT22;3516;47.980;8.808;2023-04-30T17:06:33;14.70;62.80
6954;DHT22;3516;47.980;8.808;2023-04-30T17:08:59;14.60;64.00
6954;DHT22;3516;47.980;8.808;2023-04-30T17:11:27;14.50;65.20
6954;DHT22;3516;47.980;8.808;2023-04-30T17:13:53;14.50;66.10
6954;DHT22;3516;47.980;8.808;2023-04-30T17:16:21;14.40;67.70
6954;DHT22;3516;47.980;8.808;2023-04-30T17:18:48;14.30;68.40
6954;DHT22;3516;47.980;8.808;2023-04-30T17:21:17;14.30;69.50
6954;DHT22;3516;47.980;8.808;2023-04-30T17:23:43;14.30;70.50
6954;DHT22;3516;47.980;8.808;2023-04-30T17:26:10;14.20;71.30
6954;DHT22;3516;47.980;8.808;2023-04-30T17:28:37;14.10;71.90
6954;DHT22;3516;47.980;8.808;2023-04-30T17:31:04;14.10;73.20
6954;DHT22;3516;47.980;8.808;2023-04-30T17:33:32;14.10;75.60
6954;DHT22;3516;47.980;8.808;2023-04-30T17:35:58;14.00;74.60
6954;DHT22;3516;47.980;8.808;2023-04-30T17:38:26;14.00;77.90
6954;DHT22;3516;47.980;8.808;2023-04-30T17:40:53;13.90;78.70
6954;DHT22;3516;47.980;8.808;2023-04-30T17:43:21;13.90;79.90
6954;DHT22;3516;47.980;8.808;2023-04-30T17:45:47;13.80;81.30
6954;DHT22;3516;47.980;8.808;2023-04-30T17:48:15;13.80;83.90
6954;DHT22;3516;47.980;8.808;2023-04-30T17:50:42;13.90;85.20
6954;DHT22;3516;47.980;8.808;2023-04-30T17:53:09;13.80;87.70
6954;DHT22;3516;47.980;8.808;2023-04-30T17:55:38;13.80;87.50
6954;DHT22;3516;47.980;8.808;2023-04-30T17:58:08;13.80;89.10
6954;DHT22;3516;47.980;8.808;2023-04-30T18:00:37;13.80;89.90
6954;DHT22;3516;47.980;8.808;2023-04-30T18:03:04;13.70;89.90
6954;DHT22;3516;47.980;8.808;2023-04-30T18:05:31;13.70;90.70
6954;DHT22;3516;47.980;8.808;2023-04-30T18:07:58;13.60;91.40
6954;DHT22;3516;47.980;8.808;2023-04-30T18:10:26;13.60;92.20
6954;DHT22;3516;47.980;8.808;2023-04-30T18:12:56;13.60;92.90
6954;DHT22;3516;47.980;8.808;2023-04-30T18:15:23;13.50;93.70
6954;DHT22;3516;47.980;8.808;2023-04-30T18:17:50;13.50;94.30
6954;DHT22;3516;47.980;8.808;2023-04-30T18:20:17;13.50;94.80
6954;DHT22;3516;47.980;8.808;2023-04-30T18:22:44;13.40;95.30
6954;DHT22;3516;47.980;8.808;2023-04-30T18:25:12;13.40;95.40
6954;DHT22;3516;47.980;8.808;2023-04-30T18:27:38;13.30;97.00
6954;DHT22;3516;47.980;8.808;2023-04-30T18:30:08;13.30;97.50
6954;DHT22;3516;47.980;8.808;2023-04-30T18:32:35;13.30;98.90
6954;DHT22;3516;47.980;8.808;2023-04-30T18:35:02;13.20;99.10
6954;DHT22;3516;47.980;8.808;2023-04-30T18:37:29;13.20;99.90
6954;DHT22;3516;47.980;8.808;2023-04-30T18:39:56;13.10;99.90
6954;DHT22;3516;47.980;8.808;2023-04-30T18:42:23;13.00;99.90
6954;DHT22;3516;47.980;8.808;2023-04-30T18:44:50;12.90;99.90
6954;DHT22;3516;47.980;8.808;2023-04-30T18:47:18;12.90;99.90
6954;DHT22;3516;47.980;8.808;2023-04-30T18:49:44;12.80;99.90
6954;DHT22;3516;47.980;8.808;2023-04-30T18:52:11;12.70;99.90
6954;DHT22;3516;47.980;8.808;2023-04-30T18:54:38;12.70;99.90
6954;DHT22;3516;47.980;8.808;2023-04-30T18:57:05;12.60;99.90
6954;DHT22;3516;47.980;8.808;2023-04-30T18:59:35;12.50;99.90
6954;DHT22;3516;47.980;8.808;2023-04-30T19:02:03;12.40;99.90
6954;DHT22;3516;47.980;8.808;2023-04-30T19:04:31;12.40;99.90
6954;DHT22;3516;47.980;8.808;2023-04-30T19:06:58;12.40;99.90
6954;DHT22;3516;47.980;8.808;2023-04-30T19:09:24;12.30;99.90
6954;DHT22;3516;47.980;8.808;2023-04-30T19:11:51;12.20;99.90
6954;DHT22;3516;47.980;8.808;2023-04-30T19:14:18;12.20;99.90
6954;DHT22;3516;47.980;8.808;2023-04-30T19:16:45;12.20;99.90
6954;DHT22;3516;47.980;8.808;2023-04-30T19:19:12;12.20;99.90
6954;DHT22;3516;47.980;8.808;2023-04-30T19:21:40;12.20;99.90
6954;DHT22;3516;47.980;8.808;2023-04-30T19:24:08;12.20;99.90
6954;DHT22;3516;47.980;8.808;2023-04-30T19:26:34;12.20;99.90
6954;DHT22;3516;47.980;8.808;2023-04-30T19:29:02;12.20;99.90
6954;DHT22;3516;47.980;8.808;2023-04-30T19:31:29;12.30;99.90
6954;DHT22;3516;47.980;8.808;2023-04-30T19:33:58;12.30;99.90
6954;DHT22;3516;47.980;8.808;2023-04-30T19:36:25;12.30;99.90
6954;DHT22;3516;47.980;8.808;2023-04-30T19:38:54;12.40;99.90
6954;DHT22;3516;47.980;8.808;2023-04-30T19:41:20;12.30;99.90
6954;DHT22;3516;47.980;8.808;2023-04-30T19:43:47;12.40;99.90
6954;DHT22;3516;47.980;8.808;2023-04-30T19:46:14;12.50;99.90
6954;DHT22;3516;47.980;8.808;2023-04-30T19:48:43;12.50;99.90
6954;DHT22;3516;47.980;8.808;2023-04-30T19:51:10;12.50;99.90
6954;DHT22;3516;47.980;8.808;2023-04-30T19:53:36;12.40;99.90
6954;DHT22;3516;47.980;8.808;2023-04-30T19:56:04;12.40;99.90
6954;DHT22;3516;47.980;8.808;2023-04-30T19:58:31;12.40;99.90
6954;DHT22;3516;47.980;8.808;2023-04-30T20:00:58;12.30;99.90
6954;DHT22;3516;47.980;8.808;2023-04-30T20:03:25;12.30;99.90
6954;DHT22;3516;47.980;8.808;2023-04-30T20:05:51;12.30;99.90
6954;DHT22;3516;47.980;8.808;2023-04-30T20:08:18;12.30;99.90
6954;DHT22;3516;47.980;8.808;2023-04-30T20:10:46;12.30;99.90
6954;DHT22;3516;47.980;8.808;2023-04-30T20:13:16;12.30;99.90
6954;DHT22;3516;47.980;8.808;2023-04-30T20:15:42;12.20;99.90
6954;DHT22;3516;47.980;8.808;2023-04-30T20:18:09;12.20;99.90
6954;DHT22;3516;47.980;8.808;2023-04-30T20:20:37;12.20;99.90
6954;DHT22;3516;47.980;8.808;2023-04-30T20:23:14;12.20;99.90
6954;DHT22;3516;47.980;8.808;2023-04-30T20:25:42;12.10;99.90
6954;DHT22;3516;47.980;8.808;2023-04-30T20:28:10;12.10;99.90
6954;DHT22;3516;47.980;8.808;2023-04-30T20:30:38;12.10;99.90
6954;DHT22;3516;47.980;8.808;2023-04-30T20:33:07;12.10;99.90
6954;DHT22;3516;47.980;8.808;2023-04-30T20:35:33;12.00;99.90
6954;DHT22;3516;47.980;8.808;2023-04-30T20:38:01;12.00;99.90
6954;DHT22;3516;47.980;8.808;2023-04-30T20:40:28;11.90;99.90
6954;DHT22;3516;47.980;8.808;2023-04-30T20:42:55;11.90;99.90
6954;DHT22;3516;47.980;8.808;2023-04-30T20:45:21;11.80;99.90
6954;DHT22;3516;47.980;8.808;2023-04-30T20:47:50;11.80;99.90
6954;DHT22;3516;47.980;8.808;2023-04-30T20:50:16;11.70;99.90
6954;DHT22;3516;47.980;8.808;2023-04-30T20:52:44;11.70;99.90
6954;DHT22;3516;47.980;8.808;2023-04-30T20:55:11;11.60;99.90
6954;DHT22;3516;47.980;8.808;2023-04-30T20:57:38;11.60;99.90
6954;DHT22;3516;47.980;8.808;2023-04-30T21:00:06;11.60;99.90
6954;DHT22;3516;47.980;8.808;2023-04-30T21:02:34;11.50;99.90
6954;DHT22;3516;47.980;8.808;2023-04-30T21:05:02;11.50;99.90
6954;DHT22;3516;47.980;8.808;2023-04-30T21:07:30;11.50;99.90
6954;DHT22;3516;47.980;8.808;2023-04-30T21:09:58;11.40;99.90
6954;DHT22;3516;47.980;8.808;2023-04-30T21:12:25;11.50;99.90
6954;DHT22;3516;47.980;8.808;2023-04-30T21:14:52;11.40;99.90
6954;DHT22;3516;47.980;8.808;2023-04-30T21:17:19;11.40;99.90
6954;DHT22;3516;47.980;8.808;2023-04-30T21:19:46;11.30;99.90
6954;DHT22;3516;47.980;8.808;2023-04-30T21:22:14;11.30;99.90
6954;DHT22;3516;47.980;8.808;2023-04-30T21:24:41;11.30;99.90
6954;DHT22;3516;47.980;8.808;2023-04-30T21:27:08;11.20;99.90
6954;DHT22;3516;47.980;8.808;2023-04-30T21:29:34;11.10;99.90
6954;DHT22;3516;47.980;8.808;2023-04-30T21:32:02;11.10;99.90
6954;DHT22;3516;47.980;8.808;2023-04-30T21:34:29;11.10;99.90
6954;DHT22;3516;47.980;8.808;2023-04-30T21:36:56;11.00;99.90
6954;DHT22;3516;47.980;8.808;2023-04-30T21:39:25;11.00;99.90
6954;DHT22;3516;47.980;8.808;2023-04-30T21:41:52;10.90;99.90
6954;DHT22;3516;47.980;8.808;2023-04-30T21:44:19;10.90;99.90
6954;DHT22;3516;47.980;8.808;2023-04-30T21:46:46;10.90;99.90
6954;DHT22;3516;47.980;8.808;2023-04-30T21:49:14;10.80;99.90
6954;DHT22;3516;47.980;8.808;2023-04-30T21:51:41;10.80;99.90
6954;DHT22;3516;47.980;8.808;2023-04-30T21:54:07;10.70;99.90
6954;DHT22;3516;47.980;8.808;2023-04-30T21:56:35;10.70;99.90
6954;DHT22;3516;47.980;8.808;2023-04-30T21:59:02;10.60;99.90
6954;DHT22;3516;47.980;8.808;2023-04-30T22:01:29;10.60;99.90
6954;DHT22;3516;47.980;8.808;2023-04-30T22:03:56;10.50;99.90
6954;DHT22;3516;47.980;8.808;2023-04-30T22:06:23;10.50;99.90
6954;DHT22;3516;47.980;8.808;2023-04-30T22:08:49;10.40;99.90
6954;DHT22;3516;47.980;8.808;2023-04-30T22:11:16;10.40;99.90
6954;DHT22;3516;47.980;8.808;2023-04-30T22:13:44;10.50;99.90
6954;DHT22;3516;47.980;8.808;2023-04-30T22:16:11;10.50;99.90
6954;DHT22;3516;47.980;8.808;2023-04-30T22:18:38;10.50;99.90
6954;DHT22;3516;47.980;8.808;2023-04-30T22:21:05;10.60;99.90
6954;DHT22;3516;47.980;8.808;2023-04-30T22:23:31;10.50;99.90
6954;DHT22;3516;47.980;8.808;2023-04-30T22:25:59;10.60;99.90
6954;DHT22;3516;47.980;8.808;2023-04-30T22:28:25;10.60;99.90
6954;DHT22;3516;47.980;8.808;2023-04-30T22:30:57;10.60;99.90
6954;DHT22;3516;47.980;8.808;2023-04-30T22:33:25;10.60;99.90
6954;DHT22;3516;47.980;8.808;2023-04-30T22:35:51;10.60;99.90
6954;DHT22;3516;47.980;8.808;2023-04-30T22:38:18;10.60;99.90
6954;DHT22;3516;47.980;8.808;2023-04-30T22:40:45;10.60;99.90
6954;DHT22;3516;47.980;8.808;2023-04-30T22:43:12;10.60;99.90
6954;DHT22;3516;47.980;8.808;2023-04-30T22:45:39;10.60;99.90
6954;DHT22;3516;47.980;8.808;2023-04-30T22:48:08;10.60;99.90
6954;DHT22;3516;47.980;8.808;2023-04-30T22:50:35;10.60;99.90
6954;DHT22;3516;47.980;8.808;2023-04-30T22:53:02;10.60;99.90
6954;DHT22;3516;47.980;8.808;2023-04-30T22:55:29;10.60;99.90
6954;DHT22;3516;47.980;8.808;2023-04-30T22:57:56;10.50;99.90
6954;DHT22;3516;47.980;8.808;2023-04-30T23:00:24;10.50;99.90
6954;DHT22;3516;47.980;8.808;2023-04-30T23:02:51;10.50;99.90
6954;DHT22;3516;47.980;8.808;2023-04-30T23:05:19;10.50;99.90
6954;DHT22;3516;47.980;8.808;2023-04-30T23:07:46;10.50;99.90
6954;DHT22;3516;47.980;8.808;2023-04-30T23:10:14;10.40;99.90
6954;DHT22;3516;47.980;8.808;2023-04-30T23:12:40;10.40;99.90
6954;DHT22;3516;47.980;8.808;2023-04-30T23:15:07;10.40;99.90
6954;DHT22;3516;47.980;8.808;2023-04-30T23:17:34;10.40;99.90
6954;DHT22;3516;47.980;8.808;2023-04-30T23:20:01;10.40;99.90
6954;DHT22;3516;47.980;8.808;2023-04-30T23:22:29;10.30;99.90
6954;DHT22;3516;47.980;8.808;2023-04-30T23:24:56;10.30;99.90
6954;DHT22;3516;47.980;8.808;2023-04-30T23:27:23;10.30;99.90
6954;DHT22;3516;47.980;8.808;2023-04-30T23:29:52;10.30;99.90
6954;DHT22;3516;47.980;8.808;2023-04-30T23:32:20;10.30;99.90
